Lindsborg, Kansas
Current Conditions -  °F | °C
As of 8:53 PM on Saturday 24 Jan 2015 (Local Time) from KSLN Reporting Station
Overcast Overcast  
Wind Chill: 44°   Ceiling: 7000
Heat Index: 49°   Visibility: 10mi
Dew Point: 43°   Wind: 13mph
Humidity: 80%   Direction: 250°WSW
Pressure: 29.8"   Gusts: NA
Location:  38.57°N, 97.67°W
Report Text: KSLN 250253Z 25011KT 10SM OVC070 09/06 A2980 RMK AO2 RAE15 SLP094 P0001 60002 T00940061 50005
Loading
Personal Weather Stations






























Interactive Weather Map New forecast layout! Learn more

10-Day Weather Forecast

Advertisements
Track Severe Weather on mobile